sensor_id;sensor_type;location;lat;lon;timestamp;pressure;altitude;pressure_sealevel;temperature;humidity
65880;BME280;52661;51.364;6.054;2023-04-28T00:02:00;100949.69;;;10.40;100.00
65880;BME280;52661;51.364;6.054;2023-04-28T00:04:26;100942.31;;;10.41;100.00
65880;BME280;52661;51.364;6.054;2023-04-28T00:06:51;100936.13;;;10.47;100.00
65880;BME280;52661;51.364;6.054;2023-04-28T00:09:16;100941.56;;;10.44;100.00
65880;BME280;52661;51.364;6.054;2023-04-28T00:11:45;100940.75;;;10.40;100.00
65880;BME280;52661;51.364;6.054;2023-04-28T00:14:11;100929.94;;;10.47;100.00
65880;BME280;52661;51.364;6.054;2023-04-28T00:16:36;100926.06;;;10.51;100.00
65880;BME280;52661;51.364;6.054;2023-04-28T00:19:02;100925.31;;;10.54;100.00
65880;BME280;52661;51.364;6.054;2023-04-28T00:21:27;100910.56;;;10.48;100.00
65880;BME280;52661;51.364;6.054;2023-04-28T00:23:53;100898.16;;;10.47;100.00
65880;BME280;52661;51.364;6.054;2023-04-28T00:26:18;100890.00;;;10.44;100.00
65880;BME280;52661;51.364;6.054;2023-04-28T00:28:43;100882.63;;;10.37;100.00
65880;BME280;52661;51.364;6.054;2023-04-28T00:31:10;100881.03;;;10.29;100.00
65880;BME280;52661;51.364;6.054;2023-04-28T00:33:37;100892.25;;;10.31;100.00
65880;BME280;52661;51.364;6.054;2023-04-28T00:36:02;100884.50;;;10.26;100.00
65880;BME280;52661;51.364;6.054;2023-04-28T00:38:28;100869.75;;;10.16;100.00
65880;BME280;52661;51.364;6.054;2023-04-28T00:40:53;100876.28;;;10.12;100.00
65880;BME280;52661;51.364;6.054;2023-04-28T00:43:18;100880.13;;;10.11;100.00
65880;BME280;52661;51.364;6.054;2023-04-28T00:45:44;100877.03;;;10.09;100.00
65880;BME280;52661;51.364;6.054;2023-04-28T00:48:09;100877.41;;;10.04;100.00
65880;BME280;52661;51.364;6.054;2023-04-28T00:50:35;100870.41;;;9.99;100.00
65880;BME280;52661;51.364;6.054;2023-04-28T00:53:00;100873.91;;;10.07;100.00
65880;BME280;52661;51.364;6.054;2023-04-28T00:55:26;100878.22;;;10.11;100.00
65880;BME280;52661;51.364;6.054;2023-04-28T00:57:56;100867.00;;;10.13;100.00
65880;BME280;52661;51.364;6.054;2023-04-28T01:00:21;100870.91;;;10.15;100.00
65880;BME280;52661;51.364;6.054;2023-04-28T01:02:49;100871.63;;;10.12;100.00
65880;BME280;52661;51.364;6.054;2023-04-28T01:05:15;100860.38;;;10.10;100.00
65880;BME280;52661;51.364;6.054;2023-04-28T01:07:40;100857.25;;;10.05;100.00
65880;BME280;52661;51.364;6.054;2023-04-28T01:10:06;100849.09;;;9.94;100.00
65880;BME280;52661;51.364;6.054;2023-04-28T01:12:32;100846.75;;;9.93;100.00
65880;BME280;52661;51.364;6.054;2023-04-28T01:14:58;100860.31;;;10.00;100.00
65880;BME280;52661;51.364;6.054;2023-04-28T01:17:23;100858.00;;;9.98;100.00
65880;BME280;52661;51.364;6.054;2023-04-28T01:19:49;100856.47;;;10.01;100.00
65880;BME280;52661;51.364;6.054;2023-04-28T01:22:14;100852.56;;;9.91;100.00
65880;BME280;52661;51.364;6.054;2023-04-28T01:24:40;100844.44;;;9.91;100.00
65880;BME280;52661;51.364;6.054;2023-04-28T01:27:06;100833.94;;;9.86;100.00
65880;BME280;52661;51.364;6.054;2023-04-28T01:29:31;100826.09;;;9.70;100.00
65880;BME280;52661;51.364;6.054;2023-04-28T01:31:56;100816.78;;;9.61;100.00
65880;BME280;52661;51.364;6.054;2023-04-28T01:34:22;100805.84;;;9.47;100.00
65880;BME280;52661;51.364;6.054;2023-04-28T01:36:47;100807.00;;;9.46;100.00
65880;BME280;52661;51.364;6.054;2023-04-28T01:39:12;100809.72;;;9.46;100.00
65880;BME280;52661;51.364;6.054;2023-04-28T01:41:38;100812.78;;;9.44;100.00
65880;BME280;52661;51.364;6.054;2023-04-28T01:44:03;100826.41;;;9.51;100.00
65880;BME280;52661;51.364;6.054;2023-04-28T01:46:30;100826.81;;;9.57;100.00
65880;BME280;52661;51.364;6.054;2023-04-28T01:48:55;100821.06;;;9.69;100.00
65880;BME280;52661;51.364;6.054;2023-04-28T01:51:20;100819.16;;;9.73;100.00
65880;BME280;52661;51.364;6.054;2023-04-28T01:53:46;100819.16;;;9.73;100.00
65880;BME280;52661;51.364;6.054;2023-04-28T01:56:11;100826.91;;;9.74;100.00
65880;BME280;52661;51.364;6.054;2023-04-28T01:58:36;100831.91;;;9.69;100.00
65880;BME280;52661;51.364;6.054;2023-04-28T02:01:02;100819.91;;;9.73;100.00
65880;BME280;52661;51.364;6.054;2023-04-28T02:03:27;100811.41;;;9.71;100.00
65880;BME280;52661;51.364;6.054;2023-04-28T02:05:53;100817.88;;;9.53;100.00
65880;BME280;52661;51.364;6.054;2023-04-28T02:08:18;100815.47;;;9.40;100.00
65880;BME280;52661;51.364;6.054;2023-04-28T02:10:43;100806.25;;;9.49;100.00
65880;BME280;52661;51.364;6.054;2023-04-28T02:13:09;100801.16;;;9.36;100.00
65880;BME280;52661;51.364;6.054;2023-04-28T02:15:39;100796.88;;;9.32;100.00
65880;BME280;52661;51.364;6.054;2023-04-28T02:18:04;100791.41;;;9.25;100.00
65880;BME280;52661;51.364;6.054;2023-04-28T02:20:30;100779.31;;;9.15;100.00
65880;BME280;52661;51.364;6.054;2023-04-28T02:22:55;100773.53;;;9.17;100.00
65880;BME280;52661;51.364;6.054;2023-04-28T02:25:20;100766.94;;;9.11;100.00
65880;BME280;52661;51.364;6.054;2023-04-28T02:27:46;100770.75;;;9.06;100.00
65880;BME280;52661;51.364;6.054;2023-04-28T02:30:12;100776.19;;;9.06;100.00
65880;BME280;52661;51.364;6.054;2023-04-28T02:32:37;100783.94;;;9.08;100.00
65880;BME280;52661;51.364;6.054;2023-04-28T02:35:03;100777.34;;;9.09;100.00
65880;BME280;52661;51.364;6.054;2023-04-28T02:37:28;100776.97;;;9.10;100.00
65880;BME280;52661;51.364;6.054;2023-04-28T02:39:53;100783.19;;;9.11;100.00
65880;BME280;52661;51.364;6.054;2023-04-28T02:42:19;100785.16;;;9.17;100.00
65880;BME280;52661;51.364;6.054;2023-04-28T02:44:44;100782.06;;;9.19;100.00
65880;BME280;52661;51.364;6.054;2023-04-28T02:47:09;100779.84;;;9.35;100.00
65880;BME280;52661;51.364;6.054;2023-04-28T02:49:35;100777.13;;;9.31;100.00
65880;BME280;52661;51.364;6.054;2023-04-28T02:52:00;100772.88;;;9.34;100.00
65880;BME280;52661;51.364;6.054;2023-04-28T02:54:25;100762.00;;;9.30;100.00
65880;BME280;52661;51.364;6.054;2023-04-28T02:56:54;100757.00;;;9.32;100.00
65880;BME280;52661;51.364;6.054;2023-04-28T02:59:21;100743.81;;;9.27;100.00
65880;BME280;52661;51.364;6.054;2023-04-28T03:01:46;100747.28;;;9.24;100.00
65880;BME280;52661;51.364;6.054;2023-04-28T03:04:12;100736.81;;;9.23;100.00
65880;BME280;52661;51.364;6.054;2023-04-28T03:06:38;100726.00;;;9.23;100.00
65880;BME280;52661;51.364;6.054;2023-04-28T03:09:03;100714.78;;;9.21;100.00
65880;BME280;52661;51.364;6.054;2023-04-28T03:11:29;100702.00;;;9.18;100.00
65880;BME280;52661;51.364;6.054;2023-04-28T03:13:54;100682.59;;;9.12;100.00
65880;BME280;52661;51.364;6.054;2023-04-28T03:16:19;100679.50;;;9.10;100.00
65880;BME280;52661;51.364;6.054;2023-04-28T03:18:45;100667.91;;;9.10;100.00
65880;BME280;52661;51.364;6.054;2023-04-28T03:21:10;100668.69;;;9.14;100.00
65880;BME280;52661;51.364;6.054;2023-04-28T03:23:35;100655.50;;;9.05;100.00
65880;BME280;52661;51.364;6.054;2023-04-28T03:26:01;100650.09;;;9.09;100.00
65880;BME280;52661;51.364;6.054;2023-04-28T03:28:26;100656.69;;;9.08;100.00
65880;BME280;52661;51.364;6.054;2023-04-28T03:30:52;100668.31;;;9.15;100.00
65880;BME280;52661;51.364;6.054;2023-04-28T03:33:17;100669.13;;;9.26;100.00
65880;BME280;52661;51.364;6.054;2023-04-28T03:35:42;100685.81;;;9.35;100.00
65880;BME280;52661;51.364;6.054;2023-04-28T03:38:08;100710.63;;;9.48;100.00
65880;BME280;52661;51.364;6.054;2023-04-28T03:40:33;100718.41;;;9.57;100.00
65880;BME280;52661;51.364;6.054;2023-04-28T03:42:59;100717.31;;;9.72;100.00
65880;BME280;52661;51.364;6.054;2023-04-28T03:45:25;100711.47;;;9.66;100.00
65880;BME280;52661;51.364;6.054;2023-04-28T03:47:50;100705.66;;;9.61;100.00
65880;BME280;52661;51.364;6.054;2023-04-28T03:50:16;100688.22;;;9.55;100.00
65880;BME280;52661;51.364;6.054;2023-04-28T03:52:41;100705.66;;;9.57;100.00
65880;BME280;52661;51.364;6.054;2023-04-28T03:55:06;100696.38;;;9.62;100.00
65880;BME280;52661;51.364;6.054;2023-04-28T03:57:32;100699.13;;;9.69;100.00
65880;BME280;52661;51.364;6.054;2023-04-28T03:59:57;100697.94;;;9.70;100.00
65880;BME280;52661;51.364;6.054;2023-04-28T04:02:22;100695.66;;;9.75;100.00
65880;BME280;52661;51.364;6.054;2023-04-28T04:04:47;100692.94;;;9.72;100.00
65880;BME280;52661;51.364;6.054;2023-04-28T04:07:13;100692.16;;;9.71;100.00
65880;BME280;52661;51.364;6.054;2023-04-28T04:09:38;100687.88;;;9.74;100.00
65880;BME280;52661;51.364;6.054;2023-04-28T04:12:04;100690.59;;;9.77;100.00
65880;BME280;52661;51.364;6.054;2023-04-28T04:14:29;100684.03;;;9.78;100.00
65880;BME280;52661;51.364;6.054;2023-04-28T04:16:54;100684.81;;;9.75;100.00
65880;BME280;52661;51.364;6.054;2023-04-28T04:19:20;100680.94;;;9.76;100.00
65880;BME280;52661;51.364;6.054;2023-04-28T04:21:48;100674.34;;;9.77;100.00
65880;BME280;52661;51.364;6.054;2023-04-28T04:24:13;100669.31;;;9.72;100.00
65880;BME280;52661;51.364;6.054;2023-04-28T04:26:38;100660.00;;;9.70;100.00
65880;BME280;52661;51.364;6.054;2023-04-28T04:29:03;100661.19;;;9.69;100.00
65880;BME280;52661;51.364;6.054;2023-04-28T04:31:29;100657.69;;;9.72;100.00
65880;BME280;52661;51.364;6.054;2023-04-28T04:33:54;100662.72;;;9.77;100.00
65880;BME280;52661;51.364;6.054;2023-04-28T04:36:19;100664.69;;;9.83;100.00
65880;BME280;52661;51.364;6.054;2023-04-28T04:38:45;100666.25;;;9.88;100.00
65880;BME280;52661;51.364;6.054;2023-04-28T04:41:10;100660.06;;;9.91;100.00
65880;BME280;52661;51.364;6.054;2023-04-28T04:43:35;100670.16;;;9.94;100.00
65880;BME280;52661;51.364;6.054;2023-04-28T04:46:01;100676.72;;;9.97;100.00
65880;BME280;52661;51.364;6.054;2023-04-28T04:48:28;100661.25;;;10.01;100.00
65880;BME280;52661;51.364;6.054;2023-04-28T04:50:53;100668.97;;;10.06;100.00
65880;BME280;52661;51.364;6.054;2023-04-28T04:53:19;100671.31;;;10.04;100.00
65880;BME280;52661;51.364;6.054;2023-04-28T04:55:44;100666.66;;;10.08;100.00
65880;BME280;52661;51.364;6.054;2023-04-28T04:58:09;100669.38;;;10.08;100.00
65880;BME280;52661;51.364;6.054;2023-04-28T05:00:35;100665.91;;;10.11;100.00
65880;BME280;52661;51.364;6.054;2023-04-28T05:03:01;100663.56;;;10.06;100.00
65880;BME280;52661;51.364;6.054;2023-04-28T05:05:28;100660.47;;;10.04;100.00
65880;BME280;52661;51.364;6.054;2023-04-28T05:07:53;100663.53;;;9.99;100.00
65880;BME280;52661;51.364;6.054;2023-04-28T05:10:19;100651.53;;;10.00;100.00
65880;BME280;52661;51.364;6.054;2023-04-28T05:12:44;100649.97;;;9.99;100.00
65880;BME280;52661;51.364;6.054;2023-04-28T05:15:10;100641.84;;;9.99;100.00
65880;BME280;52661;51.364;6.054;2023-04-28T05:17:35;100653.47;;;10.03;100.00
65880;BME280;52661;51.364;6.054;2023-04-28T05:20:01;100650.75;;;9.99;100.00
65880;BME280;52661;51.364;6.054;2023-04-28T05:22:27;100652.31;;;10.00;100.00
65880;BME280;52661;51.364;6.054;2023-04-28T05:24:52;100649.25;;;10.05;100.00
65880;BME280;52661;51.364;6.054;2023-04-28T05:27:18;100643.03;;;10.05;100.00
65880;BME280;52661;51.364;6.054;2023-04-28T05:29:43;100646.53;;;10.05;100.00
65880;BME280;52661;51.364;6.054;2023-04-28T05:32:09;100651.19;;;10.05;100.00
65880;BME280;52661;51.364;6.054;2023-04-28T05:34:34;100641.84;;;10.06;100.00
65880;BME280;52661;51.364;6.054;2023-04-28T05:37:00;100636.84;;;10.08;100.00
65880;BME280;52661;51.364;6.054;2023-04-28T05:39:25;100642.63;;;10.10;100.00
65880;BME280;52661;51.364;6.054;2023-04-28T05:41:50;100651.56;;;10.07;100.00
65880;BME280;52661;51.364;6.054;2023-04-28T05:44:16;100650.41;;;10.08;100.00
65880;BME280;52661;51.364;6.054;2023-04-28T05:46:41;100644.56;;;10.09;100.00
65880;BME280;52661;51.364;6.054;2023-04-28T05:49:08;100647.31;;;10.13;100.00
65880;BME280;52661;51.364;6.054;2023-04-28T05:51:33;100645.38;;;10.17;100.00
65880;BME280;52661;51.364;6.054;2023-04-28T05:53:59;100653.16;;;10.22;100.00
65880;BME280;52661;51.364;6.054;2023-04-28T05:56:24;100643.06;;;10.19;100.00
65880;BME280;52661;51.364;6.054;2023-04-28T05:58:50;100635.31;;;10.21;100.00
65880;BME280;52661;51.364;6.054;2023-04-28T06:01:15;100633.00;;;10.23;100.00
65880;BME280;52661;51.364;6.054;2023-04-28T06:03:41;100629.50;;;10.22;100.00
65880;BME280;52661;51.364;6.054;2023-04-28T06:06:08;100634.94;;;10.29;100.00
65880;BME280;52661;51.364;6.054;2023-04-28T06:08:33;100642.28;;;10.32;100.00
65880;BME280;52661;51.364;6.054;2023-04-28T06:10:58;100631.84;;;10.38;100.00
65880;BME280;52661;51.364;6.054;2023-04-28T06:13:24;100637.28;;;10.45;100.00
65880;BME280;52661;51.364;6.054;2023-04-28T06:15:49;100637.66;;;10.44;100.00
65880;BME280;52661;51.364;6.054;2023-04-28T06:18:14;100638.41;;;10.44;100.00
65880;BME280;52661;51.364;6.054;2023-04-28T06:20:40;100640.72;;;10.46;100.00
65880;BME280;52661;51.364;6.054;2023-04-28T06:23:06;100652.75;;;10.52;100.00
65880;BME280;52661;51.364;6.054;2023-04-28T06:25:31;100652.75;;;10.55;100.00
65880;BME280;52661;51.364;6.054;2023-04-28T06:27:56;100657.00;;;10.53;100.00
65880;BME280;52661;51.364;6.054;2023-04-28T06:30:23;100655.84;;;10.57;100.00
65880;BME280;52661;51.364;6.054;2023-04-28T06:32:48;100657.78;;;10.64;100.00
65880;BME280;52661;51.364;6.054;2023-04-28T06:35:15;100654.28;;;10.74;100.00
65880;BME280;52661;51.364;6.054;2023-04-28T06:37:40;100642.25;;;10.68;100.00
65880;BME280;52661;51.364;6.054;2023-04-28T06:40:06;100641.47;;;10.74;100.00
65880;BME280;52661;51.364;6.054;2023-04-28T06:42:32;100634.09;;;10.71;100.00
65880;BME280;52661;51.364;6.054;2023-04-28T06:44:58;100644.59;;;10.76;100.00
65880;BME280;52661;51.364;6.054;2023-04-28T06:47:23;100635.66;;;10.76;100.00
65880;BME280;52661;51.364;6.054;2023-04-28T06:49:48;100626.72;;;10.79;100.00
65880;BME280;52661;51.364;6.054;2023-04-28T06:52:14;100626.34;;;10.80;100.00
65880;BME280;52661;51.364;6.054;2023-04-28T06:54:40;100637.19;;;10.84;100.00
65880;BME280;52661;51.364;6.054;2023-04-28T06:57:05;100632.91;;;10.94;100.00
65880;BME280;52661;51.364;6.054;2023-04-28T06:59:31;100637.19;;;10.91;100.00
65880;BME280;52661;51.364;6.054;2023-04-28T07:01:56;100633.28;;;10.96;100.00
65880;BME280;52661;51.364;6.054;2023-04-28T07:04:21;100639.47;;;11.03;100.00
65880;BME280;52661;51.364;6.054;2023-04-28T07:06:47;100624.69;;;11.08;100.00
65880;BME280;52661;51.364;6.054;2023-04-28T07:09:12;100619.66;;;11.13;100.00
65880;BME280;52661;51.364;6.054;2023-04-28T07:11:38;100623.47;;;11.23;100.00
65880;BME280;52661;51.364;6.054;2023-04-28T07:14:03;100625.41;;;11.29;100.00
65880;BME280;52661;51.364;6.054;2023-04-28T07:16:28;100632.00;;;11.21;100.00
65880;BME280;52661;51.364;6.054;2023-04-28T07:18:54;100634.00;;;11.17;100.00
65880;BME280;52661;51.364;6.054;2023-04-28T07:21:20;100629.75;;;11.09;100.00
65880;BME280;52661;51.364;6.054;2023-04-28T07:23:45;100620.44;;;11.10;100.00
65880;BME280;52661;51.364;6.054;2023-04-28T07:26:11;100625.09;;;11.10;100.00
65880;BME280;52661;51.364;6.054;2023-04-28T07:28:40;100625.13;;;11.06;100.00
65880;BME280;52661;51.364;6.054;2023-04-28T07:31:05;100621.97;;;11.08;100.00
65880;BME280;52661;51.364;6.054;2023-04-28T07:33:30;100630.13;;;11.11;100.00
65880;BME280;52661;51.364;6.054;2023-04-28T07:35:56;100633.25;;;11.10;100.00
65880;BME280;52661;51.364;6.054;2023-04-28T07:38:21;100625.88;;;11.14;100.00
65880;BME280;52661;51.364;6.054;2023-04-28T07:40:46;100625.03;;;11.24;100.00
65880;BME280;52661;51.364;6.054;2023-04-28T07:43:12;100616.13;;;11.23;100.00
65880;BME280;52661;51.364;6.054;2023-04-28T07:45:38;100616.81;;;11.38;100.00
65880;BME280;52661;51.364;6.054;2023-04-28T07:48:04;100610.97;;;11.40;100.00
65880;BME280;52661;51.364;6.054;2023-04-28T07:50:29;100611.34;;;11.49;100.00
65880;BME280;52661;51.364;6.054;2023-04-28T07:52:55;100620.28;;;11.46;100.00
65880;BME280;52661;51.364;6.054;2023-04-28T07:55:20;100622.19;;;11.52;100.00
65880;BME280;52661;51.364;6.054;2023-04-28T07:57:45;100621.31;;;11.69;100.00
65880;BME280;52661;51.364;6.054;2023-04-28T08:00:11;100613.53;;;11.75;100.00
65880;BME280;52661;51.364;6.054;2023-04-28T08:02:37;100615.81;;;11.80;100.00
65880;BME280;52661;51.364;6.054;2023-04-28T08:05:02;100620.88;;;11.81;100.00
65880;BME280;52661;51.364;6.054;2023-04-28T08:07:28;100617.03;;;11.75;100.00
65880;BME280;52661;51.364;6.054;2023-04-28T08:09:53;100624.78;;;11.77;100.00
65880;BME280;52661;51.364;6.054;2023-04-28T08:12:19;100621.69;;;11.78;100.00
65880;BME280;52661;51.364;6.054;2023-04-28T08:14:45;100630.13;;;11.91;100.00
65880;BME280;52661;51.364;6.054;2023-04-28T08:17:11;100618.88;;;11.93;100.00
65880;BME280;52661;51.364;6.054;2023-04-28T08:19:36;100630.84;;;11.99;100.00
65880;BME280;52661;51.364;6.054;2023-04-28T08:22:02;100626.13;;;12.06;100.00
65880;BME280;52661;51.364;6.054;2023-04-28T08:24:32;100627.25;;;12.12;100.00
65880;BME280;52661;51.364;6.054;2023-04-28T08:27:01;100640.06;;;12.15;100.00
65880;BME280;52661;51.364;6.054;2023-04-28T08:29:30;100634.53;;;12.26;100.00
65880;BME280;52661;51.364;6.054;2023-04-28T08:31:57;100631.84;;;12.22;100.00
65880;BME280;52661;51.364;6.054;2023-04-28T08:34:23;100635.75;;;12.21;100.00
65880;BME280;52661;51.364;6.054;2023-04-28T08:36:48;100636.53;;;12.22;100.00
65880;BME280;52661;51.364;6.054;2023-04-28T08:39:14;100636.09;;;12.23;100.00
65880;BME280;52661;51.364;6.054;2023-04-28T08:41:40;100638.44;;;12.25;100.00
65880;BME280;52661;51.364;6.054;2023-04-28T08:44:07;100638.41;;;12.28;100.00
65880;BME280;52661;51.364;6.054;2023-04-28T08:46:33;100646.16;;;12.30;100.00
65880;BME280;52661;51.364;6.054;2023-04-28T08:49:00;100644.22;;;12.30;100.00
65880;BME280;52661;51.364;6.054;2023-04-28T08:51:33;100636.44;;;12.32;100.00
65880;BME280;52661;51.364;6.054;2023-04-28T08:54:02;100635.63;;;12.36;100.00
65880;BME280;52661;51.364;6.054;2023-04-28T08:56:34;100634.50;;;12.33;100.00
65880;BME280;52661;51.364;6.054;2023-04-28T08:59:01;100636.44;;;12.32;100.00
65880;BME280;52661;51.364;6.054;2023-04-28T09:01:28;100636.75;;;12.38;100.00
65880;BME280;52661;51.364;6.054;2023-04-28T09:03:53;100646.44;;;12.43;100.00
65880;BME280;52661;51.364;6.054;2023-04-28T09:06:18;100637.88;;;12.44;100.00
65880;BME280;52661;51.364;6.054;2023-04-28T09:08:45;100629.66;;;12.51;100.00
65880;BME280;52661;51.364;6.054;2023-04-28T09:11:11;100644.34;;;12.61;100.00
65880;BME280;52661;51.364;6.054;2023-04-28T09:13:38;100638.09;;;12.64;100.00
65880;BME280;52661;51.364;6.054;2023-04-28T09:16:04;100629.84;;;12.71;100.00
65880;BME280;52661;51.364;6.054;2023-04-28T09:18:30;100629.44;;;12.72;100.00
65880;BME280;52661;51.364;6.054;2023-04-28T09:21:05;100626.75;;;12.69;100.00
65880;BME280;52661;51.364;6.054;2023-04-28T09:23:31;100636.09;;;12.68;100.00
65880;BME280;52661;51.364;6.054;2023-04-28T09:28:33;100629.47;;;12.69;100.00
65880;BME280;52661;51.364;6.054;2023-04-28T09:30:59;100636.47;;;12.70;100.00
65880;BME280;52661;51.364;6.054;2023-04-28T09:33:25;100638.41;;;12.73;100.00
65880;BME280;52661;51.364;6.054;2023-04-28T09:35:50;100634.91;;;12.72;100.00
65880;BME280;52661;51.364;6.054;2023-04-28T09:38:18;100636.38;;;12.77;100.00
65880;BME280;52661;51.364;6.054;2023-04-28T09:45:50;100637.91;;;12.81;100.00
65880;BME280;52661;51.364;6.054;2023-04-28T09:48:16;100640.19;;;12.87;100.00
65880;BME280;52661;51.364;6.054;2023-04-28T09:50:43;100639.00;;;12.91;100.00
65880;BME280;52661;51.364;6.054;2023-04-28T09:53:10;100641.72;;;12.91;100.00
65880;BME280;52661;51.364;6.054;2023-04-28T09:55:39;100644.63;;;13.11;100.00
65880;BME280;52661;51.364;6.054;2023-04-28T09:58:06;100640.28;;;13.13;100.00
65880;BME280;52661;51.364;6.054;2023-04-28T10:00:32;100641.75;;;13.21;100.00
65880;BME280;52661;51.364;6.054;2023-04-28T10:02:59;100639.72;;;13.29;100.00
65880;BME280;52661;51.364;6.054;2023-04-28T10:05:25;100627.88;;;13.43;100.00
65880;BME280;52661;51.364;6.054;2023-04-28T10:07:50;100627.81;;;13.46;100.00
65880;BME280;52661;51.364;6.054;2023-04-28T10:10:18;100643.44;;;13.42;100.00
65880;BME280;52661;51.364;6.054;2023-04-28T10:12:44;100646.19;;;13.42;100.00
65880;BME280;52661;51.364;6.054;2023-04-28T10:15:11;100641.25;;;13.34;100.00
65880;BME280;52661;51.364;6.054;2023-04-28T10:17:37;100638.91;;;13.32;100.00
65880;BME280;52661;51.364;6.054;2023-04-28T10:20:03;100635.91;;;13.23;100.00
65880;BME280;52661;51.364;6.054;2023-04-28T10:22:53;100646.88;;;13.19;100.00
65880;BME280;52661;51.364;6.054;2023-04-28T10:25:25;100644.13;;;13.19;100.00
65880;BME280;52661;51.364;6.054;2023-04-28T10:27:51;100640.63;;;13.19;100.00
65880;BME280;52661;51.364;6.054;2023-04-28T10:30:22;100647.22;;;13.21;100.00
65880;BME280;52661;51.364;6.054;2023-04-28T10:35:43;100651.16;;;13.17;100.00
65880;BME280;52661;51.364;6.054;2023-04-28T10:38:15;100646.09;;;13.19;100.00
65880;BME280;52661;51.364;6.054;2023-04-28T10:40:51;100643.81;;;13.14;100.00
65880;BME280;52661;51.364;6.054;2023-04-28T10:56:06;100636.66;;;13.84;100.00
65880;BME280;52661;51.364;6.054;2023-04-28T10:58:32;100641.50;;;14.00;100.00
65880;BME280;52661;51.364;6.054;2023-04-28T11:11:25;100632.72;;;14.39;100.00
65880;BME280;52661;51.364;6.054;2023-04-28T11:19:29;100623.63;;;14.45;100.00
65880;BME280;52661;51.364;6.054;2023-04-28T11:21:56;100629.00;;;14.49;100.00
65880;BME280;52661;51.364;6.054;2023-04-28T11:24:23;100623.78;;;14.58;100.00
65880;BME280;52661;51.364;6.054;2023-04-28T11:26:54;100619.84;;;14.59;100.00
65880;BME280;52661;51.364;6.054;2023-04-28T11:29:38;100616.72;;;14.60;100.00
65880;BME280;52661;51.364;6.054;2023-04-28T11:32:08;100623.31;;;14.63;100.00
65880;BME280;52661;51.364;6.054;2023-04-28T11:34:35;100622.97;;;14.81;100.00
65880;BME280;52661;51.364;6.054;2023-04-28T11:37:01;100617.66;;;14.93;100.00
65880;BME280;52661;51.364;6.054;2023-04-28T11:39:32;100615.91;;;15.03;100.00
65880;BME280;52661;51.364;6.054;2023-04-28T11:41:59;100621.16;;;15.13;100.00
65880;BME280;52661;51.364;6.054;2023-04-28T11:44:27;100622.41;;;15.28;100.00
65880;BME280;52661;51.364;6.054;2023-04-28T11:46:55;100621.63;;;15.48;100.00
65880;BME280;52661;51.364;6.054;2023-04-28T11:49:22;100619.72;;;15.45;100.00
65880;BME280;52661;51.364;6.054;2023-04-28T11:51:52;100624.25;;;15.55;100.00
65880;BME280;52661;51.364;6.054;2023-04-28T11:54:20;100617.41;;;15.63;100.00
65880;BME280;52661;51.364;6.054;2023-04-28T11:56:46;100608.44;;;15.62;100.00
65880;BME280;52661;51.364;6.054;2023-04-28T11:59:12;100605.19;;;15.67;100.00
65880;BME280;52661;51.364;6.054;2023-04-28T12:01:47;100614.50;;;15.70;100.00
65880;BME280;52661;51.364;6.054;2023-04-28T12:04:24;100613.13;;;15.62;100.00
65880;BME280;52661;51.364;6.054;2023-04-28T12:07:00;100616.22;;;15.64;100.00
65880;BME280;52661;51.364;6.054;2023-04-28T12:09:26;100608.69;;;15.52;100.00
65880;BME280;52661;51.364;6.054;2023-04-28T12:11:56;100607.47;;;15.53;100.00
65880;BME280;52661;51.364;6.054;2023-04-28T12:14:22;100609.09;;;15.50;100.00
65880;BME280;52661;51.364;6.054;2023-04-28T12:16:47;100605.59;;;15.50;100.00
65880;BME280;52661;51.364;6.054;2023-04-28T12:19:15;100607.13;;;15.51;100.00
65880;BME280;52661;51.364;6.054;2023-04-28T12:21:41;100606.75;;;15.49;100.00
65880;BME280;52661;51.364;6.054;2023-04-28T12:24:18;100604.81;;;15.49;100.00
65880;BME280;52661;51.364;6.054;2023-04-28T12:26:43;100608.69;;;15.52;100.00
65880;BME280;52661;51.364;6.054;2023-04-28T12:29:09;100608.84;;;15.61;100.00
65880;BME280;52661;51.364;6.054;2023-04-28T12:31:50;100614.50;;;15.70;100.00
65880;BME280;52661;51.364;6.054;2023-04-28T12:34:17;100610.09;;;15.76;100.00
65880;BME280;52661;51.364;6.054;2023-04-28T12:36:42;100618.03;;;15.87;100.00
65880;BME280;52661;51.364;6.054;2023-04-28T12:39:13;100611.09;;;15.82;100.00
65880;BME280;52661;51.364;6.054;2023-04-28T12:41:40;100611.78;;;15.86;100.00
65880;BME280;52661;51.364;6.054;2023-04-28T12:44:06;100612.31;;;15.97;100.00
65880;BME280;52661;51.364;6.054;2023-04-28T12:46:31;100605.47;;;16.05;100.00
65880;BME280;52661;51.364;6.054;2023-04-28T12:48:57;100601.03;;;16.11;100.00
65880;BME280;52661;51.364;6.054;2023-04-28T12:51:22;100610.59;;;16.19;100.00
65880;BME280;52661;51.364;6.054;2023-04-28T12:53:48;100608.03;;;16.12;100.00
65880;BME280;52661;51.364;6.054;2023-04-28T12:56:13;100608.19;;;16.21;100.00
65880;BME280;52661;51.364;6.054;2023-04-28T12:58:38;100610.34;;;16.14;100.00
65880;BME280;52661;51.364;6.054;2023-04-28T13:01:04;100610.34;;;16.14;100.00
65880;BME280;52661;51.364;6.054;2023-04-28T13:03:29;100613.34;;;16.19;100.00
65880;BME280;52661;51.364;6.054;2023-04-28T13:05:54;100611.44;;;16.33;100.00
65880;BME280;52661;51.364;6.054;2023-04-28T13:08:20;100619.56;;;16.36;100.00
65880;BME280;52661;51.364;6.054;2023-04-28T13:10:45;100617.41;;;16.44;100.00
65880;BME280;52661;51.364;6.054;2023-04-28T13:13:11;100622.66;;;16.83;100.00
65880;BME280;52661;51.364;6.054;2023-04-28T13:15:36;100623.78;;;16.86;100.00
65880;BME280;52661;51.364;6.054;2023-04-28T13:18:01;100626.97;;;16.68;100.00